AirNav   ProFlight Series 2 Aviation Headset
 
 1547 users online  

48VA Al's Field Airport
Gore, Virginia, USA

GOING TO GORE?


FAA INFORMATION EFFECTIVE 08 OCTOBER 2020

Location

FAA Identifier: 48VA
Lat/Long: 39-17-26.3650N 078-21-03.0200W
39-17.439417N 078-21.050333W
39.2906569,-78.3508389
(estimated)
Elevation: 1120 ft. / 341 m (estimated)
Variation: 08W (1985)
From city: 2 miles NW of GORE, VA
Time zone: UTC -4 (UTC -5 during Standard Time)
Zip code: 22637

Airport Operations

Airport use: Private use. Permission required prior to landing
Activation date: 08/1986
Control tower: no
ARTCC: WASHINGTON CENTER
FSS: LEESBURG FLIGHT SERVICE STATION
Attendance: UNATNDD
Wind indicator: yes
Segmented circle: no

Airport Communications

WX AWOS-3 at OKV (13 nm SE): 124.85 (540-662-6970)
WX ASOS at MRB (18 nm E): 119.925 (304-264-0988)

Nearby radio navigation aids

VOR radial/distance  VOR name  Freq  Var
MRBr263/24.0MARTINSBURG VORTAC112.1007W
LDNr352/27.0LINDEN VORTAC114.3006W
ESLr088/29.9KESSEL VOR/DME110.8006W
HGRr230/(33.5)HAGERSTOWN VOR109.8007W

 
NDB name  Hdg/Dist  Freq  Var  ID
CAVERNS018/35.924509WLUA .-.. ..- .-

Airport Services

Runway Information

Runway 3/21

Dimensions: 1500 x 50 ft. / 457 x 15 m
Surface: turf
RUNWAY 3  RUNWAY 21
Traffic pattern: leftleft

Runway 10/28

Dimensions: 900 x 30 ft. / 274 x 9 m
Surface: turf
RUNWAY 10  RUNWAY 28
Traffic pattern: leftleft

Airport Ownership and Management from official FAA records

Ownership: Privately-owned
Owner: AL HAYS
447 WHITACRE ROAD
GORE, VA 22637-2144
Phone 540-888-4348
Manager: AL HAYS
447 WHITACRE ROAD
GORE, VA 22637
Phone 540-888-4348

Additional Remarks

CAUTION: FARM EQUIPMENT AND HAY BALES MAY BE ON OR NEAR LANDING AREAS.
AIRSTRIP IS A HAYFIELD WHEN NOT IN USE FOR RUNWAYS.
PERMISSION REQUIRED EXCEPT FOR EMERGENCY.
DRONES OR UAVS NOT ALLOWED EXC FOR LAW ENFORCEMENT OR LEGITIMATE EMERG OPS.
FOR CD CTC POTOMAC APCH AT 866-709-4993.

Instrument Procedures

There are no published instrument procedures at 48VA.

Some nearby airports with instrument procedures:

KOKV - Winchester Regional Airport (13 nm SE)
KMRB - Eastern WV Regional Airport/Shepherd Field (18 nm E)
KFRR - Front Royal-Warren County Airport (23 nm S)
9VA5 - Bluegrass Heliport (25 nm SE)
W35 - Potomac Airpark (26 nm N)
 
Loc | Ops | Rwys | IFR | FBO | Links
Com | Nav | Svcs | Stats | Notes
Area around 48VA (Al's Field Airport)
 
Road maps at: MapQuest Bing Google
 
Aerial photo
WARNING: Photo may not be current or correct
Aerial photo of 48VA (Al's Field Airport)
Photo by Steve Beste
Photo taken 25-Jul-2020
looking south.

Do you have a better or more recent aerial photo of Al's Field Airport that you would like to share? If so, please send us your photo.

 
Sectional chart

 
Airport distance calculator
Flying to Al's Field Airport? Find the distance to fly.

From to 48VA

Sunrise and sunset
Times for 20-Oct-2020
 Local
(UTC-4)
 Zulu
(UTC)
Morning civil twilight07:0311:03
Sunrise07:3011:30
Sunset18:2622:26
Evening civil twilight18:5322:53

Current date and time
Zulu (UTC)  20-Oct-2020 14:57:50
Local (UTC-4)  20-Oct-2020 10:57:50
 
METAR
KOKV 
13nm SE 
201455Z AUTO 22006KT 10SM CLR 18/12 A3021 RMK AO2
KMRB 
18nm E 
201453Z 20007KT 10SM CLR 19/13 A3021 RMK AO2 SLP226 T01890128 51006
KFRR 
23nm S 
201455Z AUTO 21005KT 10SM CLR 19/13 A3023 RMK AO1
TAF
KMRB 
18nm E 
201126Z 2012/2112 VRB03KT P6SM SCT250 FM202000 14004KT P6SM SCT100 FM202100 13004KT P6SM FEW045 FM210200 VRB03KT 4SM BR SKC
NOTAMs
Click for the latest NOTAMs
NOTAMs are issued by the DoD/FAA and will open in a separate window not controlled by AirNav.

 

 
 

Would you like to see your business listed on this page?

 If your business provides an interesting product or service to pilots, flight crews, aircraft, or users of the Al's Field Airport, you should consider listing it here.  To start the listing process, click on the button below
 
Add a business
 

Other Pages about Al's Field Airport

Update a link
 
Copyright © AirNav, LLC. All rights reserved. Privacy Policy  Contact